sensor_id;sensor_type;location;lat;lon;timestamp;P1;durP1;ratioP1;P2;durP2;ratioP2
52974;SDS011;38839;45.186;5.720;2023-03-01T00:01:46;10.23;;;6.75;;
52974;SDS011;38839;45.186;5.720;2023-03-01T00:04:11;9.23;;;6.97;;
52974;SDS011;38839;45.186;5.720;2023-03-01T00:06:37;11.38;;;7.55;;
52974;SDS011;38839;45.186;5.720;2023-03-01T00:09:02;10.88;;;7.35;;
52974;SDS011;38839;45.186;5.720;2023-03-01T00:11:29;11.88;;;8.15;;
52974;SDS011;38839;45.186;5.720;2023-03-01T00:13:57;10.27;;;7.32;;
52974;SDS011;38839;45.186;5.720;2023-03-01T00:16:25;12.10;;;8.00;;
52974;SDS011;38839;45.186;5.720;2023-03-01T00:18:53;9.85;;;7.00;;
52974;SDS011;38839;45.186;5.720;2023-03-01T00:21:20;10.98;;;7.35;;
52974;SDS011;38839;45.186;5.720;2023-03-01T00:23:47;12.30;;;7.82;;
52974;SDS011;38839;45.186;5.720;2023-03-01T00:26:13;10.68;;;7.30;;
52974;SDS011;38839;45.186;5.720;2023-03-01T00:28:40;11.50;;;7.80;;
52974;SDS011;38839;45.186;5.720;2023-03-01T00:31:06;10.07;;;7.78;;
52974;SDS011;38839;45.186;5.720;2023-03-01T00:33:33;11.88;;;7.95;;
52974;SDS011;38839;45.186;5.720;2023-03-01T00:35:59;12.75;;;7.90;;
52974;SDS011;38839;45.186;5.720;2023-03-01T00:38:25;11.38;;;8.13;;
52974;SDS011;38839;45.186;5.720;2023-03-01T00:40:50;11.45;;;7.80;;
52974;SDS011;38839;45.186;5.720;2023-03-01T00:43:16;11.48;;;7.90;;
52974;SDS011;38839;45.186;5.720;2023-03-01T00:45:41;12.25;;;8.63;;
52974;SDS011;38839;45.186;5.720;2023-03-01T00:48:06;11.95;;;8.18;;
52974;SDS011;38839;45.186;5.720;2023-03-01T00:50:32;12.73;;;7.72;;
52974;SDS011;38839;45.186;5.720;2023-03-01T00:52:57;14.10;;;8.25;;
52974;SDS011;38839;45.186;5.720;2023-03-01T00:55:23;10.80;;;7.82;;
52974;SDS011;38839;45.186;5.720;2023-03-01T00:57:48;10.60;;;7.90;;
52974;SDS011;38839;45.186;5.720;2023-03-01T01:00:14;11.80;;;7.63;;
52974;SDS011;38839;45.186;5.720;2023-03-01T01:02:40;12.55;;;7.93;;
52974;SDS011;38839;45.186;5.720;2023-03-01T01:05:05;12.63;;;8.40;;
52974;SDS011;38839;45.186;5.720;2023-03-01T01:07:31;11.73;;;8.25;;
52974;SDS011;38839;45.186;5.720;2023-03-01T01:09:57;14.77;;;8.13;;
52974;SDS011;38839;45.186;5.720;2023-03-01T01:12:23;13.13;;;8.38;;
52974;SDS011;38839;45.186;5.720;2023-03-01T01:14:48;11.75;;;8.35;;
52974;SDS011;38839;45.186;5.720;2023-03-01T01:17:13;10.65;;;7.57;;
52974;SDS011;38839;45.186;5.720;2023-03-01T01:19:39;10.98;;;7.13;;
52974;SDS011;38839;45.186;5.720;2023-03-01T01:22:04;11.75;;;8.07;;
52974;SDS011;38839;45.186;5.720;2023-03-01T01:24:29;13.93;;;9.32;;
52974;SDS011;38839;45.186;5.720;2023-03-01T01:26:55;14.27;;;9.38;;
52974;SDS011;38839;45.186;5.720;2023-03-01T01:29:20;14.85;;;8.82;;
52974;SDS011;38839;45.186;5.720;2023-03-01T01:31:46;14.27;;;10.20;;
52974;SDS011;38839;45.186;5.720;2023-03-01T01:34:15;15.02;;;10.07;;
52974;SDS011;38839;45.186;5.720;2023-03-01T01:36:42;12.75;;;9.25;;
52974;SDS011;38839;45.186;5.720;2023-03-01T01:39:07;14.85;;;10.07;;
52974;SDS011;38839;45.186;5.720;2023-03-01T01:41:38;13.88;;;9.65;;
52974;SDS011;38839;45.186;5.720;2023-03-01T01:46:40;13.95;;;9.55;;
52974;SDS011;38839;45.186;5.720;2023-03-01T01:51:43;13.80;;;9.75;;
52974;SDS011;38839;45.186;5.720;2023-03-01T01:54:18;13.10;;;9.27;;
52974;SDS011;38839;45.186;5.720;2023-03-01T01:56:48;16.02;;;9.73;;
52974;SDS011;38839;45.186;5.720;2023-03-01T01:59:20;18.10;;;10.90;;
52974;SDS011;38839;45.186;5.720;2023-03-01T02:01:49;16.90;;;11.25;;
52974;SDS011;38839;45.186;5.720;2023-03-01T02:04:15;14.32;;;9.68;;
52974;SDS011;38839;45.186;5.720;2023-03-01T02:06:41;15.88;;;10.32;;
52974;SDS011;38839;45.186;5.720;2023-03-01T02:09:15;15.63;;;9.73;;
52974;SDS011;38839;45.186;5.720;2023-03-01T02:11:44;14.88;;;10.10;;
52974;SDS011;38839;45.186;5.720;2023-03-01T02:14:09;14.82;;;9.18;;
52974;SDS011;38839;45.186;5.720;2023-03-01T02:16:35;15.00;;;10.05;;
52974;SDS011;38839;45.186;5.720;2023-03-01T02:19:01;18.75;;;10.88;;
52974;SDS011;38839;45.186;5.720;2023-03-01T02:21:32;14.90;;;10.30;;
52974;SDS011;38839;45.186;5.720;2023-03-01T02:26:55;16.63;;;10.13;;
52974;SDS011;38839;45.186;5.720;2023-03-01T02:29:24;15.82;;;10.60;;
52974;SDS011;38839;45.186;5.720;2023-03-01T02:31:52;16.40;;;10.65;;
52974;SDS011;38839;45.186;5.720;2023-03-01T02:34:23;17.15;;;11.35;;
52974;SDS011;38839;45.186;5.720;2023-03-01T02:37:32;15.52;;;10.35;;
52974;SDS011;38839;45.186;5.720;2023-03-01T02:39:40;16.13;;;10.88;;
52974;SDS011;38839;45.186;5.720;2023-03-01T02:42:14;16.10;;;11.00;;
52974;SDS011;38839;45.186;5.720;2023-03-01T02:44:43;14.95;;;10.82;;
52974;SDS011;38839;45.186;5.720;2023-03-01T02:47:09;18.30;;;10.40;;
52974;SDS011;38839;45.186;5.720;2023-03-01T02:49:35;18.98;;;11.13;;
52974;SDS011;38839;45.186;5.720;2023-03-01T02:52:39;15.80;;;10.60;;
52974;SDS011;38839;45.186;5.720;2023-03-01T02:55:14;18.77;;;11.48;;
52974;SDS011;38839;45.186;5.720;2023-03-01T02:57:42;18.35;;;11.10;;
52974;SDS011;38839;45.186;5.720;2023-03-01T03:00:10;17.83;;;11.68;;
52974;SDS011;38839;45.186;5.720;2023-03-01T03:02:46;15.40;;;10.48;;
52974;SDS011;38839;45.186;5.720;2023-03-01T03:05:15;18.90;;;11.07;;
52974;SDS011;38839;45.186;5.720;2023-03-01T03:07:44;15.18;;;10.35;;
52974;SDS011;38839;45.186;5.720;2023-03-01T03:10:12;14.35;;;10.25;;
52974;SDS011;38839;45.186;5.720;2023-03-01T03:12:49;18.38;;;11.82;;
52974;SDS011;38839;45.186;5.720;2023-03-01T03:15:16;17.35;;;11.32;;
52974;SDS011;38839;45.186;5.720;2023-03-01T03:17:42;19.50;;;11.68;;
52974;SDS011;38839;45.186;5.720;2023-03-01T03:20:09;16.73;;;11.30;;
52974;SDS011;38839;45.186;5.720;2023-03-01T03:22:40;18.00;;;11.52;;
52974;SDS011;38839;45.186;5.720;2023-03-01T03:25:08;17.77;;;11.52;;
52974;SDS011;38839;45.186;5.720;2023-03-01T03:27:39;17.60;;;11.57;;
52974;SDS011;38839;45.186;5.720;2023-03-01T03:30:06;17.17;;;10.43;;
52974;SDS011;38839;45.186;5.720;2023-03-01T03:32:37;17.50;;;11.15;;
52974;SDS011;38839;45.186;5.720;2023-03-01T03:35:06;17.67;;;11.65;;
52974;SDS011;38839;45.186;5.720;2023-03-01T03:37:37;17.90;;;11.63;;
52974;SDS011;38839;45.186;5.720;2023-03-01T03:40:22;16.15;;;10.32;;
52974;SDS011;38839;45.186;5.720;2023-03-01T03:42:47;18.13;;;11.70;;
52974;SDS011;38839;45.186;5.720;2023-03-01T03:45:13;18.30;;;11.68;;
52974;SDS011;38839;45.186;5.720;2023-03-01T03:47:38;16.42;;;11.45;;
52974;SDS011;38839;45.186;5.720;2023-03-01T03:50:04;16.92;;;11.32;;
52974;SDS011;38839;45.186;5.720;2023-03-01T03:52:30;17.33;;;11.05;;
52974;SDS011;38839;45.186;5.720;2023-03-01T03:54:55;18.25;;;11.02;;
52974;SDS011;38839;45.186;5.720;2023-03-01T03:57:20;16.70;;;10.98;;
52974;SDS011;38839;45.186;5.720;2023-03-01T03:59:46;18.75;;;11.57;;
52974;SDS011;38839;45.186;5.720;2023-03-01T04:02:11;20.02;;;12.15;;
52974;SDS011;38839;45.186;5.720;2023-03-01T04:04:37;16.70;;;10.88;;
52974;SDS011;38839;45.186;5.720;2023-03-01T04:07:02;18.30;;;11.35;;
52974;SDS011;38839;45.186;5.720;2023-03-01T04:09:27;20.52;;;11.00;;
52974;SDS011;38839;45.186;5.720;2023-03-01T04:11:55;19.15;;;12.00;;
52974;SDS011;38839;45.186;5.720;2023-03-01T04:14:20;18.75;;;10.95;;
52974;SDS011;38839;45.186;5.720;2023-03-01T04:16:45;19.65;;;11.70;;
52974;SDS011;38839;45.186;5.720;2023-03-01T04:19:11;18.35;;;11.50;;
52974;SDS011;38839;45.186;5.720;2023-03-01T04:21:36;15.70;;;10.77;;
52974;SDS011;38839;45.186;5.720;2023-03-01T04:24:02;18.08;;;10.73;;
52974;SDS011;38839;45.186;5.720;2023-03-01T04:26:28;19.15;;;11.18;;
52974;SDS011;38839;45.186;5.720;2023-03-01T04:28:54;19.00;;;11.00;;
52974;SDS011;38839;45.186;5.720;2023-03-01T04:31:20;16.40;;;10.73;;
52974;SDS011;38839;45.186;5.720;2023-03-01T04:33:50;16.85;;;11.48;;
52974;SDS011;38839;45.186;5.720;2023-03-01T04:36:17;15.98;;;10.15;;
52974;SDS011;38839;45.186;5.720;2023-03-01T04:38:44;18.30;;;11.52;;
52974;SDS011;38839;45.186;5.720;2023-03-01T04:41:13;19.73;;;12.50;;
52974;SDS011;38839;45.186;5.720;2023-03-01T04:43:39;21.02;;;11.88;;
52974;SDS011;38839;45.186;5.720;2023-03-01T04:46:06;17.60;;;11.52;;
52974;SDS011;38839;45.186;5.720;2023-03-01T04:48:34;17.40;;;10.83;;
52974;SDS011;38839;45.186;5.720;2023-03-01T04:51:01;18.85;;;12.20;;
52974;SDS011;38839;45.186;5.720;2023-03-01T04:53:26;20.67;;;12.20;;
52974;SDS011;38839;45.186;5.720;2023-03-01T04:55:53;19.55;;;11.82;;
52974;SDS011;38839;45.186;5.720;2023-03-01T04:58:20;22.17;;;12.38;;
52974;SDS011;38839;45.186;5.720;2023-03-01T05:00:47;19.92;;;12.80;;
52974;SDS011;38839;45.186;5.720;2023-03-01T05:03:12;22.20;;;12.07;;
52974;SDS011;38839;45.186;5.720;2023-03-01T05:05:43;20.10;;;12.05;;
52974;SDS011;38839;45.186;5.720;2023-03-01T05:08:09;20.73;;;12.73;;
52974;SDS011;38839;45.186;5.720;2023-03-01T05:10:42;18.58;;;11.48;;
52974;SDS011;38839;45.186;5.720;2023-03-01T05:13:18;17.58;;;11.70;;
52974;SDS011;38839;45.186;5.720;2023-03-01T05:15:58;19.98;;;11.95;;
52974;SDS011;38839;45.186;5.720;2023-03-01T05:18:25;17.45;;;10.93;;
52974;SDS011;38839;45.186;5.720;2023-03-01T05:20:52;20.13;;;12.30;;
52974;SDS011;38839;45.186;5.720;2023-03-01T05:23:18;18.27;;;12.23;;
52974;SDS011;38839;45.186;5.720;2023-03-01T05:25:43;17.83;;;11.98;;
52974;SDS011;38839;45.186;5.720;2023-03-01T05:28:12;18.10;;;12.07;;
52974;SDS011;38839;45.186;5.720;2023-03-01T05:30:39;18.52;;;11.80;;
52974;SDS011;38839;45.186;5.720;2023-03-01T05:33:05;19.73;;;11.88;;
52974;SDS011;38839;45.186;5.720;2023-03-01T05:35:35;19.40;;;12.25;;
52974;SDS011;38839;45.186;5.720;2023-03-01T05:38:01;18.00;;;11.50;;
52974;SDS011;38839;45.186;5.720;2023-03-01T05:40:26;17.45;;;11.80;;
52974;SDS011;38839;45.186;5.720;2023-03-01T05:42:53;18.02;;;11.18;;
52974;SDS011;38839;45.186;5.720;2023-03-01T05:45:20;17.77;;;11.02;;
52974;SDS011;38839;45.186;5.720;2023-03-01T05:47:46;18.58;;;11.80;;
52974;SDS011;38839;45.186;5.720;2023-03-01T05:50:14;20.58;;;12.63;;
52974;SDS011;38839;45.186;5.720;2023-03-01T05:55:08;19.20;;;11.90;;
52974;SDS011;38839;45.186;5.720;2023-03-01T05:57:34;17.92;;;11.45;;
52974;SDS011;38839;45.186;5.720;2023-03-01T06:00:00;17.60;;;11.57;;
52974;SDS011;38839;45.186;5.720;2023-03-01T06:02:25;23.38;;;13.25;;
52974;SDS011;38839;45.186;5.720;2023-03-01T06:04:52;17.98;;;12.07;;
52974;SDS011;38839;45.186;5.720;2023-03-01T06:07:17;17.75;;;11.80;;
52974;SDS011;38839;45.186;5.720;2023-03-01T06:09:42;18.83;;;11.88;;
52974;SDS011;38839;45.186;5.720;2023-03-01T06:12:08;18.02;;;11.40;;
52974;SDS011;38839;45.186;5.720;2023-03-01T06:14:33;19.08;;;11.80;;
52974;SDS011;38839;45.186;5.720;2023-03-01T06:16:58;18.95;;;11.80;;
52974;SDS011;38839;45.186;5.720;2023-03-01T06:19:24;17.42;;;11.05;;
52974;SDS011;38839;45.186;5.720;2023-03-01T06:21:49;19.35;;;12.55;;
52974;SDS011;38839;45.186;5.720;2023-03-01T06:24:14;18.25;;;11.68;;
52974;SDS011;38839;45.186;5.720;2023-03-01T06:26:40;19.88;;;11.80;;
52974;SDS011;38839;45.186;5.720;2023-03-01T06:29:05;18.70;;;12.23;;
52974;SDS011;38839;45.186;5.720;2023-03-01T06:31:30;19.80;;;11.95;;
52974;SDS011;38839;45.186;5.720;2023-03-01T06:33:56;17.58;;;11.52;;
52974;SDS011;38839;45.186;5.720;2023-03-01T06:36:21;22.13;;;13.02;;
52974;SDS011;38839;45.186;5.720;2023-03-01T06:38:46;21.02;;;13.02;;
52974;SDS011;38839;45.186;5.720;2023-03-01T06:41:12;19.45;;;11.90;;
52974;SDS011;38839;45.186;5.720;2023-03-01T06:43:37;20.52;;;13.00;;
52974;SDS011;38839;45.186;5.720;2023-03-01T06:46:03;22.92;;;12.63;;
52974;SDS011;38839;45.186;5.720;2023-03-01T06:48:30;19.77;;;11.88;;
52974;SDS011;38839;45.186;5.720;2023-03-01T06:50:57;18.42;;;12.13;;
52974;SDS011;38839;45.186;5.720;2023-03-01T06:53:24;19.42;;;12.65;;
52974;SDS011;38839;45.186;5.720;2023-03-01T06:55:53;20.55;;;12.10;;
52974;SDS011;38839;45.186;5.720;2023-03-01T06:58:19;18.95;;;12.07;;
52974;SDS011;38839;45.186;5.720;2023-03-01T07:00:45;20.98;;;12.73;;
52974;SDS011;38839;45.186;5.720;2023-03-01T07:03:10;22.63;;;12.00;;
52974;SDS011;38839;45.186;5.720;2023-03-01T07:05:36;20.65;;;12.20;;
52974;SDS011;38839;45.186;5.720;2023-03-01T07:08:01;19.70;;;12.68;;
52974;SDS011;38839;45.186;5.720;2023-03-01T07:10:27;19.80;;;11.85;;
52974;SDS011;38839;45.186;5.720;2023-03-01T07:12:56;18.55;;;11.30;;
52974;SDS011;38839;45.186;5.720;2023-03-01T07:15:21;22.15;;;11.63;;
52974;SDS011;38839;45.186;5.720;2023-03-01T07:17:47;20.65;;;12.52;;
52974;SDS011;38839;45.186;5.720;2023-03-01T07:20:14;18.70;;;12.07;;
52974;SDS011;38839;45.186;5.720;2023-03-01T07:22:40;19.70;;;11.73;;
52974;SDS011;38839;45.186;5.720;2023-03-01T07:25:07;26.60;;;14.23;;
52974;SDS011;38839;45.186;5.720;2023-03-01T07:27:33;27.85;;;15.30;;
52974;SDS011;38839;45.186;5.720;2023-03-01T07:29:58;23.58;;;14.50;;
52974;SDS011;38839;45.186;5.720;2023-03-01T07:32:23;21.65;;;13.93;;
52974;SDS011;38839;45.186;5.720;2023-03-01T07:34:50;23.67;;;13.10;;
52974;SDS011;38839;45.186;5.720;2023-03-01T07:37:16;23.80;;;13.20;;
52974;SDS011;38839;45.186;5.720;2023-03-01T07:39:42;23.08;;;12.80;;
52974;SDS011;38839;45.186;5.720;2023-03-01T07:42:08;22.42;;;12.88;;
52974;SDS011;38839;45.186;5.720;2023-03-01T07:44:35;22.25;;;13.38;;
52974;SDS011;38839;45.186;5.720;2023-03-01T07:47:01;19.63;;;12.65;;
52974;SDS011;38839;45.186;5.720;2023-03-01T07:49:28;20.63;;;12.55;;
52974;SDS011;38839;45.186;5.720;2023-03-01T07:51:53;22.13;;;13.10;;
52974;SDS011;38839;45.186;5.720;2023-03-01T07:54:18;23.85;;;13.32;;
52974;SDS011;38839;45.186;5.720;2023-03-01T07:56:44;26.88;;;13.80;;
52974;SDS011;38839;45.186;5.720;2023-03-01T07:59:09;25.27;;;13.85;;
52974;SDS011;38839;45.186;5.720;2023-03-01T08:01:35;23.10;;;12.38;;
52974;SDS011;38839;45.186;5.720;2023-03-01T08:04:00;21.83;;;13.90;;
52974;SDS011;38839;45.186;5.720;2023-03-01T08:06:26;21.90;;;12.63;;
52974;SDS011;38839;45.186;5.720;2023-03-01T08:08:52;20.70;;;12.68;;
52974;SDS011;38839;45.186;5.720;2023-03-01T08:11:20;26.88;;;12.55;;
52974;SDS011;38839;45.186;5.720;2023-03-01T08:13:47;23.13;;;12.48;;
52974;SDS011;38839;45.186;5.720;2023-03-01T08:16:13;28.73;;;14.18;;
52974;SDS011;38839;45.186;5.720;2023-03-01T08:18:40;22.52;;;13.00;;
52974;SDS011;38839;45.186;5.720;2023-03-01T08:21:06;23.85;;;12.77;;
52974;SDS011;38839;45.186;5.720;2023-03-01T08:23:33;20.23;;;12.60;;
52974;SDS011;38839;45.186;5.720;2023-03-01T08:26:03;22.35;;;13.02;;
52974;SDS011;38839;45.186;5.720;2023-03-01T08:28:33;23.63;;;13.25;;
52974;SDS011;38839;45.186;5.720;2023-03-01T08:30:58;24.00;;;14.18;;
52974;SDS011;38839;45.186;5.720;2023-03-01T08:33:24;23.45;;;13.68;;
52974;SDS011;38839;45.186;5.720;2023-03-01T08:35:49;21.83;;;12.63;;
52974;SDS011;38839;45.186;5.720;2023-03-01T08:38:15;23.30;;;13.30;;
52974;SDS011;38839;45.186;5.720;2023-03-01T08:40:40;26.13;;;14.88;;
52974;SDS011;38839;45.186;5.720;2023-03-01T08:43:05;24.00;;;13.75;;
52974;SDS011;38839;45.186;5.720;2023-03-01T08:45:31;22.90;;;13.90;;
52974;SDS011;38839;45.186;5.720;2023-03-01T08:47:56;24.58;;;13.20;;
52974;SDS011;38839;45.186;5.720;2023-03-01T08:50:21;20.90;;;13.50;;
52974;SDS011;38839;45.186;5.720;2023-03-01T08:52:49;23.85;;;13.55;;
52974;SDS011;38839;45.186;5.720;2023-03-01T08:55:15;32.58;;;14.10;;
52974;SDS011;38839;45.186;5.720;2023-03-01T08:57:42;25.02;;;15.35;;
52974;SDS011;38839;45.186;5.720;2023-03-01T09:00:07;24.48;;;14.13;;
52974;SDS011;38839;45.186;5.720;2023-03-01T09:02:33;26.23;;;15.02;;
52974;SDS011;38839;45.186;5.720;2023-03-01T09:04:59;24.17;;;14.18;;
52974;SDS011;38839;45.186;5.720;2023-03-01T09:07:25;23.67;;;13.60;;
52974;SDS011;38839;45.186;5.720;2023-03-01T09:09:53;23.67;;;14.25;;
52974;SDS011;38839;45.186;5.720;2023-03-01T09:12:19;21.35;;;14.52;;
52974;SDS011;38839;45.186;5.720;2023-03-01T09:14:44;24.02;;;13.68;;
52974;SDS011;38839;45.186;5.720;2023-03-01T09:17:09;22.27;;;15.38;;
52974;SDS011;38839;45.186;5.720;2023-03-01T09:19:35;23.63;;;14.65;;
52974;SDS011;38839;45.186;5.720;2023-03-01T09:22:00;25.75;;;14.70;;
52974;SDS011;38839;45.186;5.720;2023-03-01T09:24:27;23.48;;;14.02;;
52974;SDS011;38839;45.186;5.720;2023-03-01T09:26:53;22.73;;;14.40;;
52974;SDS011;38839;45.186;5.720;2023-03-01T09:29:20;22.40;;;13.52;;
52974;SDS011;38839;45.186;5.720;2023-03-01T09:31:46;23.20;;;13.20;;
52974;SDS011;38839;45.186;5.720;2023-03-01T09:34:11;24.02;;;14.30;;
52974;SDS011;38839;45.186;5.720;2023-03-01T09:36:38;22.52;;;13.80;;
52974;SDS011;38839;45.186;5.720;2023-03-01T09:39:04;25.02;;;14.77;;
52974;SDS011;38839;45.186;5.720;2023-03-01T09:47:17;31.10;;;13.23;;
52974;SDS011;38839;45.186;5.720;2023-03-01T09:49:45;27.42;;;13.95;;
52974;SDS011;38839;45.186;5.720;2023-03-01T09:54:59;21.40;;;12.48;;
52974;SDS011;38839;45.186;5.720;2023-03-01T10:08:38;23.27;;;13.63;;
52974;SDS011;38839;45.186;5.720;2023-03-01T10:11:28;21.08;;;12.68;;
52974;SDS011;38839;45.186;5.720;2023-03-01T10:14:05;24.90;;;13.48;;
52974;SDS011;38839;45.186;5.720;2023-03-01T10:16:47;19.52;;;12.75;;
52974;SDS011;38839;45.186;5.720;2023-03-01T10:19:23;19.45;;;12.35;;
52974;SDS011;38839;45.186;5.720;2023-03-01T10:21:55;23.20;;;13.93;;
52974;SDS011;38839;45.186;5.720;2023-03-01T10:24:26;20.60;;;13.30;;
52974;SDS011;38839;45.186;5.720;2023-03-01T10:26:57;24.80;;;13.02;;
52974;SDS011;38839;45.186;5.720;2023-03-01T10:29:49;22.23;;;13.38;;
52974;SDS011;38839;45.186;5.720;2023-03-01T10:32:19;22.52;;;14.38;;
52974;SDS011;38839;45.186;5.720;2023-03-01T10:34:46;23.67;;;14.30;;
52974;SDS011;38839;45.186;5.720;2023-03-01T10:37:14;22.15;;;13.35;;
52974;SDS011;38839;45.186;5.720;2023-03-01T10:42:33;22.67;;;13.73;;
52974;SDS011;38839;45.186;5.720;2023-03-01T10:45:17;21.20;;;13.25;;
52974;SDS011;38839;45.186;5.720;2023-03-01T10:58:25;23.20;;;13.45;;
52974;SDS011;38839;45.186;5.720;2023-03-01T11:00:52;24.42;;;14.07;;
52974;SDS011;38839;45.186;5.720;2023-03-01T11:03:23;22.10;;;13.57;;
52974;SDS011;38839;45.186;5.720;2023-03-01T11:06:19;22.13;;;13.32;;
52974;SDS011;38839;45.186;5.720;2023-03-01T11:08:48;21.10;;;13.60;;
52974;SDS011;38839;45.186;5.720;2023-03-01T11:16:40;22.42;;;13.30;;
52974;SDS011;38839;45.186;5.720;2023-03-01T11:21:33;23.17;;;13.82;;
52974;SDS011;38839;45.186;5.720;2023-03-01T11:24:04;23.52;;;13.68;;
52974;SDS011;38839;45.186;5.720;2023-03-01T11:26:35;19.48;;;12.93;;
52974;SDS011;38839;45.186;5.720;2023-03-01T11:29:06;26.08;;;14.13;;
52974;SDS011;38839;45.186;5.720;2023-03-01T11:31:41;19.90;;;11.65;;
52974;SDS011;38839;45.186;5.720;2023-03-01T11:34:11;21.10;;;13.00;;
52974;SDS011;38839;45.186;5.720;2023-03-01T11:36:41;26.38;;;13.68;;
52974;SDS011;38839;45.186;5.720;2023-03-01T11:42:12;23.50;;;13.15;;
52974;SDS011;38839;45.186;5.720;2023-03-01T11:44:42;25.25;;;14.73;;
52974;SDS011;38839;45.186;5.720;2023-03-01T11:47:16;27.95;;;15.25;;
52974;SDS011;38839;45.186;5.720;2023-03-01T11:52:59;25.35;;;15.57;;
52974;SDS011;38839;45.186;5.720;2023-03-01T11:55:36;26.65;;;15.05;;
52974;SDS011;38839;45.186;5.720;2023-03-01T12:01:24;23.63;;;14.85;;
52974;SDS011;38839;45.186;5.720;2023-03-01T12:09:18;23.45;;;15.82;;
52974;SDS011;38839;45.186;5.720;2023-03-01T12:20:11;25.30;;;16.15;;
52974;SDS011;38839;45.186;5.720;2023-03-01T12:28:35;22.77;;;13.05;;
52974;SDS011;38839;45.186;5.720;2023-03-01T12:31:29;23.42;;;13.75;;
52974;SDS011;38839;45.186;5.720;2023-03-01T12:50:24;24.65;;;14.13;;
52974;SDS011;38839;45.186;5.720;2023-03-01T12:52:55;21.88;;;14.13;;
52974;SDS011;38839;45.186;5.720;2023-03-01T12:55:26;23.50;;;14.38;;
52974;SDS011;38839;45.186;5.720;2023-03-01T12:58:59;23.88;;;13.75;;
52974;SDS011;38839;45.186;5.720;2023-03-01T13:01:15;21.15;;;13.88;;
52974;SDS011;38839;45.186;5.720;2023-03-01T13:18:01;24.25;;;14.43;;
52974;SDS011;38839;45.186;5.720;2023-03-01T13:20:56;22.38;;;13.05;;
52974;SDS011;38839;45.186;5.720;2023-03-01T13:23:31;22.55;;;14.30;;
52974;SDS011;38839;45.186;5.720;2023-03-01T13:26:01;22.02;;;14.02;;
52974;SDS011;38839;45.186;5.720;2023-03-01T13:30:57;23.70;;;13.85;;
52974;SDS011;38839;45.186;5.720;2023-03-01T13:35:51;24.63;;;14.13;;
52974;SDS011;38839;45.186;5.720;2023-03-01T13:38:37;21.75;;;13.27;;
52974;SDS011;38839;45.186;5.720;2023-03-01T13:41:03;21.40;;;13.85;;
52974;SDS011;38839;45.186;5.720;2023-03-01T13:43:31;24.48;;;14.00;;
52974;SDS011;38839;45.186;5.720;2023-03-01T13:45:59;27.15;;;15.20;;
52974;SDS011;38839;45.186;5.720;2023-03-01T13:48:29;23.63;;;14.35;;
52974;SDS011;38839;45.186;5.720;2023-03-01T13:51:00;20.00;;;13.45;;
52974;SDS011;38839;45.186;5.720;2023-03-01T13:53:33;20.73;;;13.43;;
52974;SDS011;38839;45.186;5.720;2023-03-01T13:56:02;24.13;;;14.23;;
52974;SDS011;38839;45.186;5.720;2023-03-01T13:58:43;24.77;;;15.23;;
52974;SDS011;38839;45.186;5.720;2023-03-01T14:01:22;23.38;;;14.00;;
52974;SDS011;38839;45.186;5.720;2023-03-01T14:03:50;19.50;;;13.15;;
52974;SDS011;38839;45.186;5.720;2023-03-01T14:06:16;23.08;;;14.18;;
52974;SDS011;38839;45.186;5.720;2023-03-01T14:08:46;22.33;;;13.82;;
52974;SDS011;38839;45.186;5.720;2023-03-01T14:19:24;21.35;;;13.38;;
52974;SDS011;38839;45.186;5.720;2023-03-01T14:24:47;23.55;;;13.05;;
52974;SDS011;38839;45.186;5.720;2023-03-01T14:27:18;18.73;;;12.82;;
52974;SDS011;38839;45.186;5.720;2023-03-01T14:29:53;26.75;;;13.95;;
52974;SDS011;38839;45.186;5.720;2023-03-01T14:32:22;20.75;;;13.18;;
52974;SDS011;38839;45.186;5.720;2023-03-01T14:34:50;21.40;;;13.52;;
52974;SDS011;38839;45.186;5.720;2023-03-01T14:39:59;26.33;;;14.35;;
52974;SDS011;38839;45.186;5.720;2023-03-01T14:42:28;20.48;;;13.20;;
52974;SDS011;38839;45.186;5.720;2023-03-01T14:44:58;22.25;;;13.70;;
52974;SDS011;38839;45.186;5.720;2023-03-01T14:47:27;22.77;;;13.32;;
52974;SDS011;38839;45.186;5.720;2023-03-01T14:50:28;22.52;;;13.10;;
52974;SDS011;38839;45.186;5.720;2023-03-01T14:52:53;22.30;;;13.52;;
52974;SDS011;38839;45.186;5.720;2023-03-01T14:55:30;21.35;;;13.55;;
52974;SDS011;38839;45.186;5.720;2023-03-01T14:57:57;21.60;;;12.70;;
52974;SDS011;38839;45.186;5.720;2023-03-01T15:00:24;19.63;;;13.02;;
52974;SDS011;38839;45.186;5.720;2023-03-01T15:02:54;21.73;;;13.85;;
52974;SDS011;38839;45.186;5.720;2023-03-01T15:05:29;24.13;;;13.15;;
52974;SDS011;38839;45.186;5.720;2023-03-01T15:07:57;24.17;;;14.60;;
52974;SDS011;38839;45.186;5.720;2023-03-01T15:10:25;21.83;;;12.30;;
52974;SDS011;38839;45.186;5.720;2023-03-01T15:12:55;21.38;;;13.20;;
52974;SDS011;38839;45.186;5.720;2023-03-01T15:17:53;26.52;;;14.48;;
52974;SDS011;38839;45.186;5.720;2023-03-01T15:20:22;23.23;;;13.95;;
52974;SDS011;38839;45.186;5.720;2023-03-01T15:22:51;22.08;;;13.95;;
52974;SDS011;38839;45.186;5.720;2023-03-01T15:25:18;24.20;;;15.25;;
52974;SDS011;38839;45.186;5.720;2023-03-01T15:27:46;22.98;;;13.20;;
52974;SDS011;38839;45.186;5.720;2023-03-01T15:30:17;22.60;;;14.65;;
52974;SDS011;38839;45.186;5.720;2023-03-01T15:35:47;23.38;;;14.68;;
52974;SDS011;38839;45.186;5.720;2023-03-01T15:40:53;23.58;;;13.43;;
52974;SDS011;38839;45.186;5.720;2023-03-01T15:48:50;27.58;;;13.30;;
52974;SDS011;38839;45.186;5.720;2023-03-01T15:51:26;22.88;;;12.70;;
52974;SDS011;38839;45.186;5.720;2023-03-01T15:53:55;23.90;;;14.82;;
52974;SDS011;38839;45.186;5.720;2023-03-01T15:56:21;26.02;;;14.30;;
52974;SDS011;38839;45.186;5.720;2023-03-01T15:58:46;23.67;;;14.82;;
52974;SDS011;38839;45.186;5.720;2023-03-01T16:01:12;23.98;;;14.48;;
52974;SDS011;38839;45.186;5.720;2023-03-01T16:03:40;21.63;;;14.00;;
52974;SDS011;38839;45.186;5.720;2023-03-01T16:06:06;21.58;;;14.10;;
52974;SDS011;38839;45.186;5.720;2023-03-01T16:08:33;20.33;;;12.95;;
52974;SDS011;38839;45.186;5.720;2023-03-01T16:10:58;22.40;;;14.13;;
52974;SDS011;38839;45.186;5.720;2023-03-01T16:13:24;20.70;;;13.50;;
52974;SDS011;38839;45.186;5.720;2023-03-01T16:15:50;21.73;;;13.05;;
52974;SDS011;38839;45.186;5.720;2023-03-01T16:18:16;22.23;;;13.43;;
52974;SDS011;38839;45.186;5.720;2023-03-01T16:20:41;24.05;;;14.02;;
52974;SDS011;38839;45.186;5.720;2023-03-01T16:23:07;23.85;;;14.27;;
52974;SDS011;38839;45.186;5.720;2023-03-01T16:25:35;25.05;;;15.60;;
52974;SDS011;38839;45.186;5.720;2023-03-01T16:28:03;20.88;;;13.60;;
52974;SDS011;38839;45.186;5.720;2023-03-01T16:30:33;24.30;;;14.10;;
52974;SDS011;38839;45.186;5.720;2023-03-01T16:33:00;21.45;;;13.70;;
52974;SDS011;38839;45.186;5.720;2023-03-01T16:35:26;22.23;;;13.82;;
52974;SDS011;38839;45.186;5.720;2023-03-01T16:37:51;22.80;;;14.25;;
52974;SDS011;38839;45.186;5.720;2023-03-01T16:40:25;22.38;;;14.15;;
52974;SDS011;38839;45.186;5.720;2023-03-01T16:42:52;24.38;;;14.15;;
52974;SDS011;38839;45.186;5.720;2023-03-01T16:45:20;22.42;;;14.95;;
52974;SDS011;38839;45.186;5.720;2023-03-01T16:47:45;25.27;;;13.63;;
52974;SDS011;38839;45.186;5.720;2023-03-01T16:50:11;22.92;;;14.38;;
52974;SDS011;38839;45.186;5.720;2023-03-01T16:52:36;24.05;;;13.57;;
52974;SDS011;38839;45.186;5.720;2023-03-01T16:55:02;22.70;;;13.77;;